createdAt,value
2023-04-16T00:00:56.088Z,10.70
2023-04-16T00:03:33.560Z,11.60
2023-04-16T00:06:01.651Z,10.20
2023-04-16T00:08:29.310Z,12.30
2023-04-16T00:10:57.107Z,12.40
2023-04-16T00:13:26.973Z,11.90
2023-04-16T00:15:54.791Z,12.50
2023-04-16T00:18:22.456Z,11.40
2023-04-16T00:20:50.828Z,12.10
2023-04-16T00:23:18.562Z,12.30
2023-04-16T00:25:46.474Z,11.40
2023-04-16T00:28:14.231Z,13.10
2023-04-16T00:30:42.311Z,13.10
2023-04-16T00:33:10.059Z,15.10
2023-04-16T00:35:37.745Z,14.60
2023-04-16T00:38:05.519Z,14.90
2023-04-16T00:40:33.177Z,15.50
2023-04-16T00:43:00.903Z,15.30
2023-04-16T00:45:28.678Z,13.60
2023-04-16T00:48:00.402Z,14.20
2023-04-16T00:50:29.007Z,12.80
2023-04-16T00:52:57.322Z,13.60
2023-04-16T00:55:25.031Z,14.20
2023-04-16T00:57:53.395Z,12.60
2023-04-16T01:00:21.753Z,12.20
2023-04-16T01:02:49.793Z,11.00
2023-04-16T01:05:17.908Z,11.80
2023-04-16T01:07:45.709Z,12.20
2023-04-16T01:10:13.334Z,12.10
2023-04-16T01:12:40.920Z,12.90
2023-04-16T01:15:09.259Z,11.60
2023-04-16T01:17:37.067Z,10.40
2023-04-16T01:20:05.457Z,10.00
2023-04-16T01:22:33.096Z,10.30
2023-04-16T01:25:00.934Z,11.70
2023-04-16T01:27:28.596Z,11.90
2023-04-16T01:29:56.400Z,12.60
2023-04-16T01:32:24.273Z,13.00
2023-04-16T01:34:52.001Z,13.50
2023-04-16T01:37:19.747Z,12.50
2023-04-16T01:39:47.608Z,11.40
2023-04-16T01:42:15.333Z,11.90
2023-04-16T01:44:43.000Z,11.00
2023-04-16T01:47:10.694Z,10.70
2023-04-16T01:49:38.644Z,10.50
2023-04-16T01:52:08.405Z,10.70
2023-04-16T01:54:36.335Z,10.90
2023-04-16T01:57:04.240Z,12.50
2023-04-16T01:59:31.965Z,12.30
2023-04-16T02:02:13.118Z,13.40
2023-04-16T02:04:43.595Z,12.00
2023-04-16T02:07:12.592Z,12.40
2023-04-16T02:09:41.614Z,13.10
2023-04-16T02:12:11.329Z,13.20
2023-04-16T02:14:39.093Z,12.90
2023-04-16T02:17:06.808Z,12.60
2023-04-16T02:19:34.629Z,12.50
2023-04-16T02:22:03.122Z,13.50
2023-04-16T02:24:31.025Z,13.60
2023-04-16T02:26:58.941Z,12.40
2023-04-16T02:29:26.706Z,12.60
2023-04-16T02:31:54.379Z,12.70
2023-04-16T02:34:22.074Z,11.10
2023-04-16T02:36:49.795Z,11.50
2023-04-16T02:39:17.635Z,12.50
2023-04-16T02:41:45.385Z,12.00
2023-04-16T02:44:13.215Z,11.70
2023-04-16T02:46:40.910Z,10.90
2023-04-16T02:49:08.777Z,11.60
2023-04-16T02:51:36.818Z,11.20
2023-04-16T02:54:04.512Z,11.10
2023-04-16T02:56:32.237Z,12.10
2023-04-16T02:59:00.039Z,10.90
2023-04-16T03:01:29.114Z,12.70
2023-04-16T03:03:57.029Z,12.30
2023-04-16T03:06:24.809Z,11.70
2023-04-16T03:08:52.496Z,12.10
2023-04-16T03:11:20.439Z,12.30
2023-04-16T03:13:49.157Z,13.00
2023-04-16T03:16:17.367Z,12.30
2023-04-16T03:18:45.375Z,14.50
2023-04-16T03:21:13.115Z,13.70
2023-04-16T03:23:40.910Z,12.40
2023-04-16T03:26:08.588Z,12.30
2023-04-16T03:28:36.500Z,12.60
2023-04-16T03:31:04.324Z,12.20
2023-04-16T03:33:32.092Z,11.20
2023-04-16T03:35:59.809Z,11.40
2023-04-16T03:38:27.524Z,11.20
2023-04-16T03:40:55.194Z,11.10
2023-04-16T03:43:22.935Z,11.50
2023-04-16T03:45:50.991Z,11.40
2023-04-16T03:48:18.668Z,10.70
2023-04-16T03:50:50.436Z,10.80
2023-04-16T03:53:18.218Z,11.10
2023-04-16T03:55:45.974Z,12.30
2023-04-16T03:58:13.924Z,10.70
2023-04-16T04:00:43.018Z,10.10
2023-04-16T04:03:11.861Z,10.10
2023-04-16T04:05:41.411Z,10.10
2023-04-16T04:08:09.595Z,11.60
2023-04-16T04:10:37.517Z,11.70
2023-04-16T04:13:07.184Z,12.80
2023-04-16T04:15:35.057Z,13.60
2023-04-16T04:18:02.817Z,15.10
2023-04-16T04:20:30.749Z,14.00
2023-04-16T04:22:58.956Z,12.00
2023-04-16T04:25:26.837Z,10.70
2023-04-16T04:27:54.451Z,11.60
2023-04-16T04:30:22.201Z,11.60
2023-04-16T04:32:49.956Z,11.30
2023-04-16T04:35:17.841Z,12.20
2023-04-16T04:37:45.977Z,11.30
2023-04-16T04:40:13.693Z,11.20
2023-04-16T04:42:41.344Z,11.70
2023-04-16T04:45:10.392Z,10.90
2023-04-16T04:47:38.135Z,12.50
2023-04-16T04:50:07.055Z,11.10
2023-04-16T04:52:34.866Z,11.90
2023-04-16T04:55:02.627Z,11.20
2023-04-16T04:57:30.455Z,10.70
2023-04-16T04:59:58.146Z,12.00
2023-04-16T05:02:25.793Z,11.50
2023-04-16T05:04:53.904Z,10.60
2023-04-16T05:07:22.163Z,11.80
2023-04-16T05:09:49.869Z,13.00
2023-04-16T05:12:17.656Z,11.70
2023-04-16T05:14:45.533Z,11.70
2023-04-16T05:17:13.220Z,12.80
2023-04-16T05:19:41.042Z,13.30
2023-04-16T05:22:08.818Z,12.80
2023-04-16T05:24:36.694Z,12.90
2023-04-16T05:27:04.525Z,12.70
2023-04-16T05:29:32.319Z,13.90
2023-04-16T05:32:00.059Z,12.60
2023-04-16T05:34:27.886Z,13.30
2023-04-16T05:36:55.507Z,13.00
2023-04-16T05:39:23.684Z,12.70
2023-04-16T05:41:51.361Z,14.70
2023-04-16T05:44:18.956Z,13.90
2023-04-16T05:46:46.613Z,14.30
2023-04-16T05:49:14.299Z,13.70
2023-04-16T05:51:41.972Z,13.90
2023-04-16T05:54:09.686Z,14.20
2023-04-16T05:56:37.403Z,16.40
2023-04-16T05:59:05.122Z,14.70
2023-04-16T06:01:36.636Z,15.40
2023-04-16T06:04:04.590Z,15.30
2023-04-16T06:06:32.567Z,17.80
2023-04-16T06:09:00.389Z,18.00
2023-04-16T06:11:30.653Z,17.00
2023-04-16T06:13:58.315Z,15.50
2023-04-16T06:16:26.108Z,14.50
2023-04-16T06:18:53.771Z,13.70
2023-04-16T06:21:21.595Z,15.00
2023-04-16T06:23:49.407Z,14.60
2023-04-16T06:26:17.168Z,15.00
2023-04-16T06:28:44.777Z,16.20
2023-04-16T06:31:12.555Z,14.90
2023-04-16T06:33:40.686Z,14.10
2023-04-16T06:36:08.529Z,15.30
2023-04-16T06:38:37.089Z,15.20
2023-04-16T06:41:05.245Z,16.60
2023-04-16T06:43:33.906Z,16.20
2023-04-16T06:46:01.605Z,19.10
2023-04-16T06:48:30.088Z,18.50
2023-04-16T06:50:58.002Z,16.30
2023-04-16T06:53:25.870Z,16.40
2023-04-16T06:55:53.585Z,15.60
2023-04-16T06:58:22.373Z,17.60
2023-04-16T07:00:50.401Z,14.20
2023-04-16T07:03:18.279Z,16.30
2023-04-16T07:05:46.167Z,15.20
2023-04-16T07:08:14.064Z,14.90
2023-04-16T07:10:42.008Z,15.60
2023-04-16T07:13:09.744Z,14.90
2023-04-16T07:15:37.530Z,14.10
2023-04-16T07:18:05.404Z,14.20
2023-04-16T07:20:33.131Z,14.80
2023-04-16T07:23:00.951Z,15.10
2023-04-16T07:25:28.707Z,16.20
2023-04-16T07:27:56.403Z,16.50
2023-04-16T07:30:24.368Z,14.90
2023-04-16T07:32:52.314Z,15.90
2023-04-16T07:35:20.231Z,14.70
2023-04-16T07:37:47.955Z,14.30
2023-04-16T07:40:15.686Z,13.40
2023-04-16T07:42:43.510Z,13.10
2023-04-16T07:45:11.406Z,13.50
2023-04-16T07:47:39.378Z,15.10
2023-04-16T07:50:08.124Z,12.80
2023-04-16T07:52:35.910Z,12.90
2023-04-16T07:55:04.116Z,13.30
2023-04-16T07:57:31.945Z,13.00
2023-04-16T08:00:02.126Z,13.70
2023-04-16T08:02:30.043Z,14.80
2023-04-16T08:04:58.973Z,11.40
2023-04-16T08:07:26.932Z,14.70
2023-04-16T08:09:55.665Z,14.40
2023-04-16T08:12:23.929Z,13.70
2023-04-16T08:14:51.627Z,13.90
2023-04-16T08:17:19.537Z,12.60
2023-04-16T08:19:47.343Z,11.90
2023-04-16T08:22:15.415Z,11.60
2023-04-16T08:24:43.544Z,13.20
2023-04-16T08:27:19.323Z,12.30
2023-04-16T08:29:49.850Z,13.20
2023-04-16T08:32:17.852Z,13.00
2023-04-16T08:34:45.565Z,9.50
2023-04-16T08:37:13.193Z,12.50
2023-04-16T08:39:41.483Z,12.20
2023-04-16T08:42:23.541Z,12.60
2023-04-16T08:45:06.368Z,10.60
2023-04-16T08:47:39.328Z,12.80
2023-04-16T08:50:11.367Z,13.90
2023-04-16T08:52:50.178Z,13.20
2023-04-16T08:55:25.750Z,11.60
2023-04-16T08:58:03.320Z,13.70
2023-04-16T09:00:32.108Z,12.10
2023-04-16T09:03:00.938Z,13.60
2023-04-16T09:05:29.684Z,17.00
2023-04-16T09:07:57.566Z,13.30
2023-04-16T09:10:29.331Z,14.00
2023-04-16T09:12:57.804Z,12.10
2023-04-16T09:15:26.701Z,12.40
2023-04-16T09:17:56.520Z,13.60
2023-04-16T09:20:24.685Z,13.10
2023-04-16T09:22:52.429Z,11.60
2023-04-16T09:25:22.292Z,12.40
2023-04-16T09:27:51.303Z,12.10
2023-04-16T09:30:27.497Z,12.10
2023-04-16T09:33:22.281Z,11.70
2023-04-16T09:35:53.081Z,11.70
2023-04-16T09:38:21.547Z,10.90
2023-04-16T09:41:07.601Z,11.20
2023-04-16T09:43:35.716Z,9.50
2023-04-16T09:46:08.059Z,10.20
2023-04-16T09:48:37.073Z,10.60
2023-04-16T09:51:07.465Z,11.80
2023-04-16T09:53:35.665Z,13.60
2023-04-16T09:56:06.500Z,11.00
2023-04-16T09:58:37.509Z,11.10
2023-04-16T10:01:12.974Z,10.90
2023-04-16T10:03:41.243Z,9.90
2023-04-16T10:06:16.426Z,11.70
2023-04-16T10:08:49.908Z,11.30
2023-04-16T10:11:20.572Z,10.50
2023-04-16T10:13:51.137Z,9.70
2023-04-16T10:16:19.660Z,8.90
2023-04-16T10:18:50.899Z,10.10
2023-04-16T10:21:19.415Z,8.10
2023-04-16T10:23:49.642Z,10.30
2023-04-16T10:26:18.700Z,7.90
2023-04-16T10:28:46.577Z,8.70
2023-04-16T10:31:14.843Z,7.30
2023-04-16T10:33:44.435Z,8.20
2023-04-16T10:36:23.788Z,7.60
2023-04-16T10:38:53.209Z,7.90
2023-04-16T10:41:21.204Z,7.30
2023-04-16T10:43:51.610Z,7.80
2023-04-16T10:46:30.939Z,7.70
2023-04-16T10:49:13.349Z,7.50
2023-04-16T10:51:42.280Z,8.40
2023-04-16T10:54:14.460Z,8.80
2023-04-16T10:56:45.764Z,6.70
2023-04-16T10:59:18.289Z,6.90
2023-04-16T11:01:49.974Z,6.90
2023-04-16T11:04:21.196Z,6.60
2023-04-16T11:07:14.599Z,6.60
2023-04-16T11:10:02.145Z,6.70
2023-04-16T11:12:48.492Z,5.60
2023-04-16T11:15:30.879Z,5.80
2023-04-16T11:17:58.745Z,6.60
2023-04-16T11:20:28.454Z,6.80
2023-04-16T11:22:58.102Z,6.70
2023-04-16T11:25:31.535Z,7.00
2023-04-16T11:27:59.420Z,6.10
2023-04-16T11:30:34.156Z,6.40
2023-04-16T11:33:11.519Z,6.20
2023-04-16T11:35:40.376Z,4.90
2023-04-16T11:38:08.228Z,5.30
2023-04-16T11:40:36.493Z,6.70
2023-04-16T11:43:14.550Z,6.30
2023-04-16T11:46:26.307Z,5.90
2023-04-16T11:48:56.106Z,8.00
2023-04-16T11:51:24.281Z,6.90
2023-04-16T11:53:54.138Z,6.50
2023-04-16T11:56:35.742Z,7.00
2023-04-16T11:59:10.250Z,7.70
2023-04-16T12:01:40.802Z,7.50
2023-04-16T12:04:09.203Z,6.90
2023-04-16T12:06:37.399Z,6.80
2023-04-16T12:09:25.537Z,7.30
2023-04-16T12:11:54.184Z,7.00
2023-04-16T12:14:23.727Z,7.20
2023-04-16T12:16:51.619Z,6.90
2023-04-16T12:19:20.208Z,6.90
2023-04-16T12:21:50.386Z,7.30
2023-04-16T12:24:24.304Z,7.70
2023-04-16T12:27:03.145Z,7.30
2023-04-16T12:29:31.888Z,6.60
2023-04-16T12:31:59.781Z,7.20
2023-04-16T12:34:41.906Z,6.80
2023-04-16T12:37:15.132Z,6.90
2023-04-16T12:39:43.399Z,6.40
2023-04-16T12:42:12.803Z,6.40
2023-04-16T12:44:40.754Z,6.50
2023-04-16T12:47:08.513Z,5.70
2023-04-16T12:49:37.426Z,6.00
2023-04-16T12:52:06.064Z,6.00
2023-04-16T12:54:33.882Z,5.40
2023-04-16T12:57:01.563Z,5.50
2023-04-16T12:59:29.280Z,5.00
2023-04-16T13:01:57.041Z,6.20
2023-04-16T13:04:25.979Z,5.60
2023-04-16T13:06:53.912Z,5.80
2023-04-16T13:09:22.003Z,5.40
2023-04-16T13:11:49.768Z,7.40
2023-04-16T13:14:17.498Z,6.80
2023-04-16T13:16:45.231Z,6.40
2023-04-16T13:19:13.138Z,4.10
2023-04-16T13:21:41.098Z,4.70
2023-04-16T13:24:08.796Z,5.60
2023-04-16T13:26:36.460Z,4.40
2023-04-16T13:29:04.288Z,4.30
2023-04-16T13:31:32.163Z,4.00
2023-04-16T13:33:59.964Z,3.50
2023-04-16T13:36:27.794Z,4.10
2023-04-16T13:38:55.774Z,3.70
2023-04-16T13:41:23.368Z,4.50
2023-04-16T13:43:51.078Z,5.70
2023-04-16T13:46:19.489Z,6.80
2023-04-16T13:48:47.195Z,6.80
2023-04-16T13:51:15.663Z,5.00
2023-04-16T13:53:43.509Z,4.80
2023-04-16T13:56:13.416Z,4.60
2023-04-16T13:58:41.806Z,4.60
2023-04-16T14:01:10.128Z,4.70
2023-04-16T14:03:38.939Z,5.20
2023-04-16T14:06:06.727Z,4.90
2023-04-16T14:08:34.339Z,5.10
2023-04-16T14:11:02.154Z,5.40
2023-04-16T14:13:29.816Z,4.80
2023-04-16T14:15:57.648Z,5.80
2023-04-16T14:18:25.512Z,6.20
2023-04-16T14:20:53.195Z,6.30
2023-04-16T14:23:20.952Z,5.10
2023-04-16T14:25:48.882Z,5.40
2023-04-16T14:28:16.470Z,6.00
2023-04-16T14:30:44.168Z,5.70
2023-04-16T14:33:11.795Z,5.10
2023-04-16T14:35:39.686Z,6.00
2023-04-16T14:38:07.537Z,6.60
2023-04-16T14:40:35.307Z,6.00
2023-04-16T14:43:03.121Z,5.70
2023-04-16T14:45:32.300Z,6.00
2023-04-16T14:47:59.979Z,5.20
2023-04-16T14:50:27.910Z,5.30
2023-04-16T14:52:55.915Z,5.10
2023-04-16T14:55:23.595Z,4.80
2023-04-16T14:57:51.291Z,4.90
2023-04-16T15:00:19.229Z,4.80
2023-04-16T15:02:48.301Z,4.80
2023-04-16T15:05:16.343Z,5.30
2023-04-16T15:07:44.303Z,4.80
2023-04-16T15:10:12.655Z,5.00
2023-04-16T15:12:40.730Z,4.70
2023-04-16T15:15:09.944Z,4.60
2023-04-16T15:17:37.722Z,4.30
2023-04-16T15:20:09.448Z,5.80
2023-04-16T15:22:38.476Z,5.70
2023-04-16T15:25:07.196Z,8.90
2023-04-16T15:27:35.031Z,9.90
2023-04-16T15:30:02.735Z,7.00
2023-04-16T15:32:31.262Z,6.00
2023-04-16T15:34:59.973Z,5.90
2023-04-16T15:37:27.611Z,6.60
2023-04-16T15:39:55.225Z,5.60
2023-04-16T15:42:24.663Z,6.30
2023-04-16T15:44:52.368Z,5.20
2023-04-16T15:47:20.103Z,6.00
2023-04-16T15:49:48.186Z,6.50
2023-04-16T15:52:15.994Z,5.30
2023-04-16T15:54:43.676Z,5.20
2023-04-16T15:57:11.340Z,6.20
2023-04-16T15:59:39.205Z,5.80
2023-04-16T16:02:07.593Z,5.20
2023-04-16T16:04:36.003Z,6.20
2023-04-16T16:07:04.690Z,6.00
2023-04-16T16:09:32.407Z,4.90
2023-04-16T16:12:00.277Z,4.20
2023-04-16T16:14:28.024Z,4.80
2023-04-16T16:16:55.683Z,5.50
2023-04-16T16:19:23.656Z,4.60
2023-04-16T16:21:51.410Z,4.70
2023-04-16T16:24:19.388Z,5.40
2023-04-16T16:26:47.056Z,4.90
2023-04-16T16:29:14.985Z,5.50
2023-04-16T16:31:42.593Z,6.00
2023-04-16T16:34:19.718Z,5.60
2023-04-16T16:36:49.004Z,5.10
2023-04-16T16:39:16.654Z,6.50
2023-04-16T16:41:45.728Z,5.40
2023-04-16T16:44:13.398Z,6.10
2023-04-16T16:46:41.315Z,6.00
2023-04-16T16:49:10.195Z,5.30
2023-04-16T16:51:37.963Z,5.60
2023-04-16T16:54:08.006Z,6.20
2023-04-16T16:56:35.749Z,6.90
2023-04-16T16:59:03.879Z,6.90
2023-04-16T17:01:32.422Z,7.30
2023-04-16T17:04:00.600Z,7.00
2023-04-16T17:06:28.546Z,6.00
2023-04-16T17:08:56.296Z,6.50
2023-04-16T17:11:27.073Z,7.30
2023-04-16T17:13:55.332Z,6.90
2023-04-16T17:16:24.095Z,6.70
2023-04-16T17:18:51.918Z,5.80
2023-04-16T17:21:19.688Z,6.60
2023-04-16T17:23:47.284Z,7.10
2023-04-16T17:26:15.356Z,6.50
2023-04-16T17:28:43.119Z,6.70
2023-04-16T17:31:11.511Z,6.50
2023-04-16T17:33:39.142Z,7.50
2023-04-16T17:36:07.472Z,7.40
2023-04-16T17:38:35.190Z,8.60
2023-04-16T17:41:02.853Z,8.40
2023-04-16T17:43:30.508Z,7.20
2023-04-16T17:45:58.210Z,8.90
2023-04-16T17:48:25.924Z,9.70
2023-04-16T17:50:53.604Z,10.50
2023-04-16T17:53:22.125Z,10.70
2023-04-16T17:55:56.542Z,9.30
2023-04-16T17:58:26.466Z,10.40
2023-04-16T18:00:54.115Z,10.50
2023-04-16T18:03:22.372Z,11.40
2023-04-16T18:05:50.115Z,8.40
2023-04-16T18:08:17.807Z,8.90
2023-04-16T18:10:45.636Z,8.80
2023-04-16T18:13:13.328Z,9.20
2023-04-16T18:15:41.791Z,9.40
2023-04-16T18:18:09.844Z,10.20
2023-04-16T18:20:37.565Z,10.30
2023-04-16T18:23:05.503Z,10.10
2023-04-16T18:25:35.271Z,9.60
2023-04-16T18:28:03.961Z,8.20
2023-04-16T18:30:32.310Z,8.70
2023-04-16T18:33:30.718Z,7.90
2023-04-16T18:35:48.042Z,7.40
2023-04-16T18:38:15.870Z,8.80
2023-04-16T18:40:43.577Z,7.80
2023-04-16T18:43:11.242Z,8.20
2023-04-16T18:45:40.014Z,9.70
2023-04-16T18:48:07.792Z,9.30
2023-04-16T18:50:35.783Z,10.20
2023-04-16T18:53:03.443Z,10.60
2023-04-16T18:55:31.485Z,9.50
2023-04-16T18:57:59.324Z,8.70
2023-04-16T19:00:27.253Z,8.80
2023-04-16T19:02:56.142Z,8.00
2023-04-16T19:05:24.079Z,8.20
2023-04-16T19:07:51.702Z,8.10
2023-04-16T19:10:19.466Z,8.90
2023-04-16T19:12:47.168Z,10.60
2023-04-16T19:15:14.956Z,10.00
2023-04-16T19:17:42.733Z,8.90
2023-04-16T19:20:11.578Z,8.90
2023-04-16T19:22:39.388Z,9.10
2023-04-16T19:25:07.735Z,9.90
2023-04-16T19:27:36.339Z,9.90
2023-04-16T19:30:06.324Z,8.30
2023-04-16T19:32:34.096Z,8.70
2023-04-16T19:35:02.706Z,9.40
2023-04-16T19:37:30.408Z,8.50
2023-04-16T19:39:58.188Z,8.80
2023-04-16T19:42:26.506Z,8.10
2023-04-16T19:44:54.250Z,8.80
2023-04-16T19:47:22.021Z,8.40
2023-04-16T19:49:49.738Z,8.60
2023-04-16T19:52:17.832Z,9.10
2023-04-16T19:54:45.478Z,8.70
2023-04-16T19:57:13.271Z,8.50
2023-04-16T19:59:41.087Z,8.70
2023-04-16T20:02:08.908Z,9.40
2023-04-16T20:04:36.755Z,8.90
2023-04-16T20:07:04.492Z,9.20
2023-04-16T20:09:32.134Z,9.60
2023-04-16T20:12:00.776Z,8.90
2023-04-16T20:14:28.402Z,9.10
2023-04-16T20:16:56.085Z,10.50
2023-04-16T20:19:26.134Z,9.60
2023-04-16T20:21:53.832Z,9.30
2023-04-16T20:24:24.194Z,9.30
2023-04-16T20:26:51.972Z,8.90
2023-04-16T20:29:19.676Z,9.60
2023-04-16T20:31:48.741Z,10.00
2023-04-16T20:34:16.528Z,9.90
2023-04-16T20:36:44.210Z,10.40
2023-04-16T20:39:12.608Z,9.00
2023-04-16T20:41:44.002Z,10.70
2023-04-16T20:44:18.210Z,11.00
2023-04-16T20:46:49.614Z,10.90
2023-04-16T20:49:18.394Z,10.40
2023-04-16T20:51:46.130Z,10.30
2023-04-16T20:54:13.727Z,12.70
2023-04-16T20:56:41.643Z,15.10
2023-04-16T20:59:09.605Z,14.90
2023-04-16T21:01:37.591Z,11.40
2023-04-16T21:04:05.393Z,11.80
2023-04-16T21:06:34.429Z,11.40
2023-04-16T21:09:02.052Z,11.60
2023-04-16T21:11:33.365Z,11.20
2023-04-16T21:14:05.175Z,11.60
2023-04-16T21:16:33.063Z,11.90
2023-04-16T21:19:00.968Z,11.30
2023-04-16T21:21:29.270Z,12.80
2023-04-16T21:23:56.923Z,11.50
2023-04-16T21:26:24.648Z,12.20
2023-04-16T21:28:54.615Z,12.60
2023-04-16T21:31:22.895Z,13.00
2023-04-16T21:33:50.547Z,12.60
2023-04-16T21:36:18.458Z,12.30
2023-04-16T21:38:46.181Z,12.80
2023-04-16T21:41:13.847Z,12.50
2023-04-16T21:43:41.481Z,12.20
2023-04-16T21:46:09.144Z,13.30
2023-04-16T21:48:36.786Z,12.20
2023-04-16T21:51:08.235Z,12.90
2023-04-16T21:53:37.131Z,13.50
2023-04-16T21:56:06.134Z,14.40
2023-04-16T21:58:33.757Z,13.40
2023-04-16T22:01:01.578Z,12.20
2023-04-16T22:03:31.064Z,11.10
2023-04-16T22:06:03.340Z,11.30
2023-04-16T22:08:31.788Z,10.50
2023-04-16T22:11:02.574Z,12.00
2023-04-16T22:13:36.534Z,11.30
2023-04-16T22:16:05.788Z,10.80
2023-04-16T22:18:33.838Z,11.00
2023-04-16T22:21:02.149Z,11.60
2023-04-16T22:23:29.893Z,11.70
2023-04-16T22:25:57.521Z,12.40
2023-04-16T22:28:25.523Z,11.90
2023-04-16T22:30:53.163Z,11.30
2023-04-16T22:33:20.857Z,12.10
2023-04-16T22:35:48.600Z,11.40
2023-04-16T22:38:16.590Z,10.40
2023-04-16T22:40:48.869Z,11.20
2023-04-16T22:43:17.664Z,11.70
2023-04-16T22:45:48.022Z,11.00
2023-04-16T22:48:16.449Z,11.50
2023-04-16T22:50:50.988Z,11.80
2023-04-16T22:53:18.817Z,12.60
2023-04-16T22:55:46.529Z,11.40
2023-04-16T22:58:14.186Z,12.60
2023-04-16T23:00:41.818Z,11.50
2023-04-16T23:03:10.025Z,11.60
2023-04-16T23:05:37.870Z,11.70
2023-04-16T23:08:06.138Z,11.70
2023-04-16T23:10:33.841Z,12.60
2023-04-16T23:13:01.553Z,12.80
2023-04-16T23:15:29.351Z,12.40
2023-04-16T23:17:57.124Z,12.40
2023-04-16T23:20:24.927Z,13.20
2023-04-16T23:22:53.261Z,13.90
2023-04-16T23:25:22.444Z,13.90
2023-04-16T23:27:50.098Z,12.60
2023-04-16T23:30:17.906Z,13.50
2023-04-16T23:32:45.632Z,14.60
2023-04-16T23:35:13.599Z,12.90
2023-04-16T23:37:41.229Z,12.20
2023-04-16T23:40:10.478Z,13.30
2023-04-16T23:42:38.284Z,12.70
2023-04-16T23:45:07.038Z,12.30
2023-04-16T23:47:34.714Z,11.80
2023-04-16T23:50:02.379Z,12.70
2023-04-16T23:52:30.228Z,11.80
2023-04-16T23:54:57.792Z,17.30
2023-04-16T23:57:25.543Z,26.40
2023-04-16T23:59:53.213Z,34.50
